createdAt,value
2023-03-15T00:00:57.282Z,3.40
2023-03-15T00:03:26.821Z,3.40
2023-03-15T00:05:54.867Z,3.40
2023-03-15T00:08:22.988Z,3.40
2023-03-15T00:10:51.031Z,3.40
2023-03-15T00:13:19.153Z,3.40
2023-03-15T00:15:49.090Z,3.40
2023-03-15T00:18:19.880Z,3.40
2023-03-15T00:20:49.739Z,3.40
2023-03-15T00:23:18.420Z,3.40
2023-03-15T00:25:47.705Z,3.30
2023-03-15T00:28:16.855Z,3.30
2023-03-15T00:30:45.476Z,3.30
2023-03-15T00:33:14.726Z,3.20
2023-03-15T00:35:44.724Z,3.20
2023-03-15T00:38:14.928Z,3.20
2023-03-15T00:40:43.157Z,3.10
2023-03-15T00:43:11.215Z,3.00
2023-03-15T00:45:39.849Z,3.00
2023-03-15T00:48:07.967Z,2.90
2023-03-15T00:50:36.031Z,2.90
2023-03-15T00:53:04.120Z,2.80
2023-03-15T00:55:33.532Z,2.80
2023-03-15T00:58:01.623Z,2.80
2023-03-15T01:00:29.924Z,2.80
2023-03-15T01:02:57.981Z,2.80
2023-03-15T01:05:26.406Z,2.80
2023-03-15T01:07:54.483Z,2.70
2023-03-15T01:10:22.566Z,2.80
2023-03-15T01:12:51.994Z,2.80
2023-03-15T01:15:20.167Z,2.80
2023-03-15T01:17:48.204Z,2.80
2023-03-15T01:20:17.256Z,2.80
2023-03-15T01:22:45.325Z,2.70
2023-03-15T01:25:13.485Z,2.80
2023-03-15T01:27:41.566Z,2.90
2023-03-15T01:30:12.381Z,2.80
2023-03-15T01:32:40.438Z,2.80
2023-03-15T01:35:09.421Z,2.90
2023-03-15T01:37:37.533Z,2.90
2023-03-15T01:40:07.025Z,2.90
2023-03-15T01:42:35.105Z,2.90
2023-03-15T01:45:03.246Z,2.90
2023-03-15T01:47:32.856Z,3.00
2023-03-15T01:50:06.311Z,3.00
2023-03-15T01:52:37.191Z,3.00
2023-03-15T01:55:10.175Z,3.00
2023-03-15T01:57:42.159Z,3.00
2023-03-15T02:00:12.830Z,3.10
2023-03-15T02:02:48.144Z,3.10
2023-03-15T02:05:21.472Z,3.10
2023-03-15T02:07:50.970Z,3.10
2023-03-15T02:10:21.605Z,3.00
2023-03-15T02:12:52.900Z,3.10
2023-03-15T02:15:21.294Z,3.10
2023-03-15T02:17:50.775Z,3.00
2023-03-15T02:20:30.253Z,3.00
2023-03-15T02:23:01.051Z,3.00
2023-03-15T02:25:40.318Z,2.90
2023-03-15T02:28:12.038Z,2.90
2023-03-15T02:30:40.617Z,2.80
2023-03-15T02:33:13.816Z,2.80
2023-03-15T02:35:41.900Z,2.80
2023-03-15T02:38:09.957Z,2.80
2023-03-15T02:40:38.128Z,2.80
2023-03-15T02:43:11.656Z,2.70
2023-03-15T02:45:40.660Z,2.70
2023-03-15T02:48:10.994Z,2.70
2023-03-15T02:50:39.352Z,2.70
2023-03-15T02:53:07.451Z,2.70
2023-03-15T02:55:35.517Z,2.70
2023-03-15T02:58:03.811Z,2.60
2023-03-15T03:00:33.304Z,2.50
2023-03-15T03:03:01.401Z,2.50
2023-03-15T03:05:29.614Z,2.40
2023-03-15T03:07:58.697Z,2.40
2023-03-15T03:10:26.810Z,2.40
2023-03-15T03:12:55.332Z,2.40
2023-03-15T03:15:23.509Z,2.40
2023-03-15T03:17:54.533Z,2.40
2023-03-15T03:20:22.682Z,2.40
2023-03-15T03:22:50.777Z,2.40
2023-03-15T03:25:19.000Z,2.40
2023-03-15T03:27:47.114Z,2.30
2023-03-15T03:30:15.783Z,2.30
2023-03-15T03:32:43.916Z,2.20
2023-03-15T03:35:15.598Z,2.20
2023-03-15T03:37:44.224Z,2.20
2023-03-15T03:40:13.757Z,2.20
2023-03-15T03:42:41.884Z,2.10
2023-03-15T03:45:10.806Z,2.10
2023-03-15T03:47:38.894Z,2.10
2023-03-15T03:50:08.093Z,2.10
2023-03-15T03:52:37.554Z,2.10
2023-03-15T03:55:06.189Z,2.00
2023-03-15T03:57:34.341Z,2.00
2023-03-15T04:00:02.366Z,2.00
2023-03-15T04:02:30.466Z,2.00
2023-03-15T04:04:59.709Z,2.00
2023-03-15T04:07:28.022Z,1.90
2023-03-15T04:09:57.452Z,1.90
2023-03-15T04:12:25.709Z,1.90
2023-03-15T04:14:54.180Z,1.90
2023-03-15T04:17:22.230Z,1.80
2023-03-15T04:19:50.321Z,1.80
2023-03-15T04:22:18.408Z,1.80
2023-03-15T04:24:46.493Z,1.80
2023-03-15T04:27:15.873Z,1.80
2023-03-15T04:29:44.371Z,1.80
2023-03-15T04:32:12.965Z,1.70
2023-03-15T04:34:41.249Z,1.70
2023-03-15T04:37:10.063Z,1.70
2023-03-15T04:39:39.128Z,1.70
2023-03-15T04:42:07.757Z,1.80
2023-03-15T04:44:37.264Z,1.80
2023-03-15T04:47:05.542Z,1.80
2023-03-15T04:49:33.625Z,1.80
2023-03-15T04:52:01.992Z,1.80
2023-03-15T04:54:30.046Z,1.80
2023-03-15T04:56:58.181Z,1.80
2023-03-15T04:59:26.565Z,1.80
2023-03-15T05:01:55.998Z,1.80
2023-03-15T05:04:24.122Z,1.70
2023-03-15T05:06:52.163Z,1.70
2023-03-15T05:09:20.270Z,1.70
2023-03-15T05:11:48.367Z,1.70
2023-03-15T05:14:16.416Z,1.70
2023-03-15T05:16:44.491Z,1.70
2023-03-15T05:19:13.896Z,1.60
2023-03-15T05:21:42.043Z,1.60
2023-03-15T05:24:10.155Z,1.60
2023-03-15T05:26:38.196Z,1.50
2023-03-15T05:29:06.263Z,1.50
2023-03-15T05:31:37.038Z,1.50
2023-03-15T05:34:05.487Z,1.40
2023-03-15T05:36:35.817Z,1.40
2023-03-15T05:39:04.406Z,1.40
2023-03-15T05:41:33.831Z,1.40
2023-03-15T05:44:02.154Z,1.30
2023-03-15T05:46:31.963Z,1.30
2023-03-15T05:49:00.103Z,1.30
2023-03-15T05:51:28.162Z,1.30
2023-03-15T05:53:57.422Z,1.40
2023-03-15T05:56:25.625Z,1.30
2023-03-15T05:58:53.867Z,1.30
2023-03-15T06:01:21.961Z,1.30
2023-03-15T06:03:50.094Z,1.40
2023-03-15T06:06:18.204Z,1.30
2023-03-15T06:08:46.287Z,1.40
2023-03-15T06:11:15.689Z,1.40
2023-03-15T06:13:43.778Z,1.40
2023-03-15T06:16:11.906Z,1.40
2023-03-15T06:18:40.030Z,1.40
2023-03-15T06:21:08.635Z,1.30
2023-03-15T06:23:36.838Z,1.30
2023-03-15T06:26:05.142Z,1.30
2023-03-15T06:28:34.573Z,1.30
2023-03-15T06:31:08.136Z,1.40
2023-03-15T06:33:36.306Z,1.40
2023-03-15T06:36:04.769Z,1.40
2023-03-15T06:38:32.981Z,1.40
2023-03-15T06:41:01.776Z,1.40
2023-03-15T06:43:30.055Z,1.40
2023-03-15T06:46:00.067Z,1.50
2023-03-15T06:48:28.764Z,1.50
2023-03-15T06:50:56.826Z,1.50
2023-03-15T06:53:24.876Z,1.60
2023-03-15T06:55:52.981Z,1.70
2023-03-15T06:58:21.102Z,1.70
2023-03-15T07:00:49.587Z,1.80
2023-03-15T07:03:21.458Z,1.90
2023-03-15T07:05:52.445Z,2.00
2023-03-15T07:08:20.673Z,2.00
2023-03-15T07:10:50.345Z,2.10
2023-03-15T07:13:19.799Z,2.20
2023-03-15T07:15:52.169Z,2.30
2023-03-15T07:18:21.729Z,2.50
2023-03-15T07:20:57.282Z,2.40
2023-03-15T07:23:25.495Z,2.40
2023-03-15T07:25:55.453Z,2.40
2023-03-15T07:28:25.414Z,2.30
2023-03-15T07:30:55.030Z,2.30
2023-03-15T07:33:25.768Z,2.30
2023-03-15T07:35:54.614Z,2.50
2023-03-15T07:38:23.731Z,2.60
2023-03-15T07:40:51.882Z,2.80
2023-03-15T07:43:20.630Z,2.90
2023-03-15T07:45:48.713Z,3.00
2023-03-15T07:48:16.788Z,3.10
2023-03-15T07:50:46.682Z,3.30
2023-03-15T07:53:14.914Z,3.40
2023-03-15T07:55:42.950Z,3.60
2023-03-15T07:58:11.506Z,3.70
2023-03-15T08:00:39.577Z,3.80
2023-03-15T08:03:07.765Z,3.90
2023-03-15T08:05:36.093Z,3.90
2023-03-15T08:08:06.034Z,4.10
2023-03-15T08:10:34.147Z,4.30
2023-03-15T08:13:02.222Z,4.50
2023-03-15T08:15:30.432Z,4.70
2023-03-15T08:17:59.682Z,4.70
2023-03-15T08:20:29.817Z,4.90
2023-03-15T08:22:58.314Z,5.10
2023-03-15T08:25:28.392Z,5.10
2023-03-15T08:27:56.545Z,5.10
2023-03-15T08:30:25.068Z,5.30
2023-03-15T08:32:53.514Z,5.50
2023-03-15T08:35:22.885Z,5.40
2023-03-15T08:37:52.381Z,5.60
2023-03-15T08:40:24.843Z,5.60
2023-03-15T08:42:54.764Z,5.60
2023-03-15T08:45:23.988Z,5.80
2023-03-15T08:47:55.357Z,5.90
2023-03-15T08:50:23.939Z,6.00
2023-03-15T08:52:52.114Z,6.10
2023-03-15T08:55:20.709Z,6.10
2023-03-15T08:57:49.293Z,6.30
2023-03-15T09:00:22.770Z,6.50
2023-03-15T09:02:52.934Z,6.60
2023-03-15T09:05:22.146Z,6.50
2023-03-15T09:07:53.073Z,6.80
2023-03-15T09:10:22.247Z,6.70
2023-03-15T09:12:53.631Z,6.70
2023-03-15T09:15:23.211Z,6.90
2023-03-15T09:17:52.048Z,7.00
2023-03-15T09:20:22.807Z,7.40
2023-03-15T09:22:55.900Z,7.60
2023-03-15T09:25:25.223Z,7.50
2023-03-15T09:27:54.413Z,7.40
2023-03-15T09:30:24.073Z,7.30
2023-03-15T09:32:52.157Z,7.20
2023-03-15T09:35:21.363Z,7.50
2023-03-15T09:37:51.194Z,7.80
2023-03-15T09:40:23.212Z,7.60
2023-03-15T09:43:14.227Z,8.00
2023-03-15T09:45:56.473Z,7.80
2023-03-15T09:48:32.290Z,7.90
2023-03-15T09:51:07.209Z,8.10
2023-03-15T09:53:39.926Z,7.90
2023-03-15T09:56:21.441Z,7.90
2023-03-15T09:58:53.114Z,8.20
2023-03-15T10:01:30.205Z,8.00
2023-03-15T10:03:58.551Z,8.10
2023-03-15T10:06:36.530Z,8.00
2023-03-15T10:09:14.115Z,8.30
2023-03-15T10:11:51.032Z,8.40
2023-03-15T10:14:30.288Z,8.50
2023-03-15T10:16:59.726Z,8.60
2023-03-15T10:19:37.100Z,8.80
2023-03-15T10:22:14.227Z,8.60
2023-03-15T10:24:49.018Z,8.80
2023-03-15T10:27:21.664Z,9.00
2023-03-15T10:29:52.674Z,8.70
2023-03-15T10:32:25.617Z,9.00
2023-03-15T10:34:56.636Z,9.20
2023-03-15T10:37:25.151Z,9.10
2023-03-15T10:39:57.500Z,9.20
2023-03-15T10:42:30.890Z,9.40
2023-03-15T10:45:00.267Z,9.80
2023-03-15T10:47:29.724Z,9.40
2023-03-15T10:49:59.192Z,9.50
2023-03-15T10:52:31.717Z,9.80
2023-03-15T10:55:04.629Z,9.90
2023-03-15T10:57:38.971Z,9.60
2023-03-15T11:00:23.880Z,9.80
2023-03-15T11:03:03.311Z,10.20
2023-03-15T11:05:33.224Z,10.10
2023-03-15T11:08:02.500Z,10.00
2023-03-15T11:10:35.756Z,9.90
2023-03-15T11:13:19.793Z,9.50
2023-03-15T11:16:01.457Z,9.60
2023-03-15T11:18:35.812Z,9.80
2023-03-15T11:21:07.769Z,9.70
2023-03-15T11:23:38.875Z,9.90
2023-03-15T11:26:08.665Z,9.90
2023-03-15T11:28:40.017Z,10.30
2023-03-15T11:31:08.528Z,10.50
2023-03-15T11:33:48.425Z,10.70
2023-03-15T11:36:20.874Z,10.60
2023-03-15T11:38:49.199Z,10.60
2023-03-15T11:41:26.592Z,10.40
2023-03-15T11:44:03.629Z,10.70
2023-03-15T11:46:35.565Z,10.80
2023-03-15T11:49:15.288Z,10.70
2023-03-15T11:51:43.583Z,10.70
2023-03-15T11:54:14.705Z,10.80
2023-03-15T11:56:54.736Z,10.90
2023-03-15T11:59:27.709Z,10.90
2023-03-15T12:02:00.868Z,10.90
2023-03-15T12:04:44.389Z,11.00
2023-03-15T12:07:59.269Z,10.80
2023-03-15T12:10:35.802Z,10.80
2023-03-15T12:13:24.045Z,11.20
2023-03-15T12:15:53.220Z,11.20
2023-03-15T12:18:26.387Z,11.10
2023-03-15T12:21:08.488Z,11.40
2023-03-15T12:23:43.947Z,11.20
2023-03-15T12:26:24.180Z,11.30
2023-03-15T12:29:03.886Z,11.30
2023-03-15T12:31:52.432Z,11.40
2023-03-15T12:34:31.686Z,11.40
2023-03-15T12:37:05.716Z,11.40
2023-03-15T12:39:43.339Z,11.70
2023-03-15T12:42:48.724Z,11.50
2023-03-15T12:45:47.054Z,11.70
2023-03-15T12:48:26.164Z,11.90
2023-03-15T12:50:57.025Z,11.80
2023-03-15T12:53:37.235Z,12.20
2023-03-15T12:56:35.894Z,12.10
2023-03-15T12:59:13.791Z,12.00
2023-03-15T13:01:43.691Z,11.80
2023-03-15T13:04:13.744Z,12.00
2023-03-15T13:06:53.586Z,11.90
2023-03-15T13:09:42.159Z,12.00
2023-03-15T13:12:16.265Z,12.00
2023-03-15T13:14:51.578Z,12.40
2023-03-15T13:17:31.633Z,12.40
2023-03-15T13:20:28.824Z,12.30
2023-03-15T13:23:04.464Z,12.10
2023-03-15T13:25:39.093Z,12.10
2023-03-15T13:28:12.750Z,12.20
2023-03-15T13:30:42.312Z,12.40
2023-03-15T13:33:21.184Z,11.70
2023-03-15T13:35:55.287Z,12.00
2023-03-15T13:38:27.920Z,12.50
2023-03-15T13:40:58.352Z,12.40
2023-03-15T13:43:28.089Z,12.20
2023-03-15T13:45:59.448Z,12.20
2023-03-15T13:48:32.459Z,12.50
2023-03-15T13:51:05.491Z,12.20
2023-03-15T13:53:48.956Z,12.20
2023-03-15T13:56:22.566Z,12.10
2023-03-15T13:58:52.058Z,12.20
2023-03-15T14:01:23.140Z,11.80
2023-03-15T14:03:58.984Z,11.50
2023-03-15T14:06:28.376Z,11.70
2023-03-15T14:09:01.697Z,11.80
2023-03-15T14:11:38.245Z,11.80
2023-03-15T14:14:23.072Z,11.60
2023-03-15T14:17:04.173Z,11.40
2023-03-15T14:19:37.051Z,11.10
2023-03-15T14:22:15.495Z,11.10
2023-03-15T14:24:45.639Z,11.10
2023-03-15T14:27:20.084Z,11.10
2023-03-15T14:29:50.656Z,10.90
2023-03-15T14:32:28.969Z,10.80
2023-03-15T14:35:03.531Z,10.80
2023-03-15T14:37:37.171Z,10.90
2023-03-15T14:40:23.903Z,10.60
2023-03-15T14:42:53.296Z,10.70
2023-03-15T14:45:23.106Z,10.60
2023-03-15T14:47:57.240Z,10.60
2023-03-15T14:50:27.830Z,10.60
2023-03-15T14:52:58.157Z,10.60
2023-03-15T14:55:33.451Z,10.40
2023-03-15T14:58:04.453Z,10.40
2023-03-15T15:00:34.651Z,10.50
2023-03-15T15:03:03.294Z,10.50
2023-03-15T15:05:34.542Z,10.20
2023-03-15T15:08:06.084Z,10.10
2023-03-15T15:10:35.468Z,10.20
2023-03-15T15:13:07.338Z,10.20
2023-03-15T15:15:53.525Z,10.10
2023-03-15T15:18:24.029Z,10.10
2023-03-15T15:20:55.420Z,10.00
2023-03-15T15:23:26.656Z,10.00
2023-03-15T15:25:57.426Z,10.00
2023-03-15T15:28:35.445Z,10.10
2023-03-15T15:31:05.761Z,10.00
2023-03-15T15:33:34.311Z,9.90
2023-03-15T15:36:03.048Z,10.00
2023-03-15T15:38:38.257Z,9.90
2023-03-15T15:41:07.792Z,9.90
2023-03-15T15:43:37.249Z,9.80
2023-03-15T15:46:07.505Z,9.80
2023-03-15T15:48:35.618Z,9.80
2023-03-15T15:51:03.869Z,9.70
2023-03-15T15:53:33.721Z,9.60
2023-03-15T15:56:02.658Z,9.60
2023-03-15T15:58:31.086Z,9.70
2023-03-15T16:01:00.813Z,9.60
2023-03-15T16:03:29.117Z,9.70
2023-03-15T16:05:57.332Z,9.60
2023-03-15T16:08:26.391Z,9.60
2023-03-15T16:10:54.547Z,9.50
2023-03-15T16:13:22.932Z,9.50
2023-03-15T16:15:51.056Z,9.50
2023-03-15T16:18:20.548Z,9.50
2023-03-15T16:20:48.829Z,9.50
2023-03-15T16:23:21.558Z,9.40
2023-03-15T16:25:52.086Z,9.40
2023-03-15T16:28:20.186Z,9.30
2023-03-15T16:30:48.507Z,9.30
2023-03-15T16:33:18.663Z,9.20
2023-03-15T16:35:50.164Z,9.20
2023-03-15T16:38:24.196Z,9.10
2023-03-15T16:40:53.392Z,9.10
2023-03-15T16:43:21.763Z,9.10
2023-03-15T16:45:49.849Z,9.00
2023-03-15T16:48:18.037Z,8.90
2023-03-15T16:50:46.644Z,8.90
2023-03-15T16:53:16.485Z,8.80
2023-03-15T16:55:44.684Z,8.70
2023-03-15T16:58:19.532Z,8.70
2023-03-15T17:00:48.436Z,8.60
2023-03-15T17:03:17.826Z,8.60
2023-03-15T17:05:47.609Z,8.60
2023-03-15T17:08:20.992Z,8.50
2023-03-15T17:10:49.361Z,8.40
2023-03-15T17:13:21.501Z,8.40
2023-03-15T17:15:49.598Z,8.40
2023-03-15T17:18:19.723Z,8.30
2023-03-15T17:20:50.223Z,8.20
2023-03-15T17:23:21.238Z,8.20
2023-03-15T17:25:50.208Z,8.10
2023-03-15T17:28:18.391Z,8.00
2023-03-15T17:30:46.507Z,7.90
2023-03-15T17:33:14.680Z,7.90
2023-03-15T17:35:45.777Z,7.80
2023-03-15T17:38:19.718Z,7.80
2023-03-15T17:40:49.564Z,7.70
2023-03-15T17:43:18.018Z,7.70
2023-03-15T17:45:46.369Z,7.60
2023-03-15T17:48:14.493Z,7.60
2023-03-15T17:50:44.909Z,7.50
2023-03-15T17:53:17.324Z,7.50
2023-03-15T17:55:46.638Z,7.50
2023-03-15T17:58:20.775Z,7.40
2023-03-15T18:00:50.443Z,7.40
2023-03-15T18:03:19.202Z,7.40
2023-03-15T18:05:48.554Z,7.30
2023-03-15T18:08:19.000Z,7.30
2023-03-15T18:10:48.856Z,7.30
2023-03-15T18:13:21.461Z,7.20
2023-03-15T18:15:51.215Z,7.20
2023-03-15T18:18:20.300Z,7.20
2023-03-15T18:20:49.459Z,7.10
2023-03-15T18:23:18.479Z,7.10
2023-03-15T18:25:46.680Z,7.10
2023-03-15T18:28:14.730Z,7.10
2023-03-15T18:30:44.848Z,7.10
2023-03-15T18:33:14.185Z,7.00
2023-03-15T18:35:42.270Z,7.00
2023-03-15T18:38:10.372Z,7.00
2023-03-15T18:40:38.477Z,7.00
2023-03-15T18:43:06.754Z,6.90
2023-03-15T18:45:36.610Z,6.90
2023-03-15T18:48:06.596Z,6.90
2023-03-15T18:50:36.125Z,6.90
2023-03-15T18:53:06.181Z,6.90
2023-03-15T18:55:35.651Z,6.90
2023-03-15T18:58:04.451Z,6.80
2023-03-15T19:00:36.093Z,6.80
2023-03-15T19:03:06.678Z,6.80
2023-03-15T19:05:36.645Z,6.80
2023-03-15T19:08:05.161Z,6.80
2023-03-15T19:10:33.233Z,6.80
2023-03-15T19:13:04.037Z,6.70
2023-03-15T19:15:32.781Z,6.70
2023-03-15T19:18:01.631Z,6.70
2023-03-15T19:20:31.068Z,6.70
2023-03-15T19:22:59.236Z,6.70
2023-03-15T19:25:27.314Z,6.70
2023-03-15T19:27:55.601Z,6.70
2023-03-15T19:30:23.817Z,6.70
2023-03-15T19:32:52.327Z,6.70
2023-03-15T19:35:21.762Z,6.70
2023-03-15T19:37:51.958Z,6.70
2023-03-15T19:40:21.260Z,6.60
2023-03-15T19:42:49.681Z,6.60
2023-03-15T19:45:19.032Z,6.60
2023-03-15T19:47:47.565Z,6.60
2023-03-15T19:50:16.709Z,6.60
2023-03-15T19:52:47.767Z,6.60
2023-03-15T19:55:19.391Z,6.60
2023-03-15T19:57:48.414Z,6.60
2023-03-15T20:00:18.771Z,6.60
2023-03-15T20:02:48.174Z,6.50
2023-03-15T20:05:17.632Z,6.50
2023-03-15T20:07:46.221Z,6.50
2023-03-15T20:10:14.980Z,6.50
2023-03-15T20:12:45.353Z,6.50
2023-03-15T20:15:15.678Z,6.50
2023-03-15T20:17:44.573Z,6.40
2023-03-15T20:20:14.786Z,6.40
2023-03-15T20:22:44.327Z,6.40
2023-03-15T20:25:13.459Z,6.40
2023-03-15T20:27:41.912Z,6.40
2023-03-15T20:30:14.605Z,6.40
2023-03-15T20:32:43.570Z,6.30
2023-03-15T20:35:12.279Z,6.30
2023-03-15T20:37:42.382Z,6.30
2023-03-15T20:40:12.945Z,6.30
2023-03-15T20:42:41.683Z,6.30
2023-03-15T20:45:12.651Z,6.30
2023-03-15T20:47:41.441Z,6.30
2023-03-15T20:50:11.311Z,6.30
2023-03-15T20:52:40.842Z,6.30
2023-03-15T20:55:09.840Z,6.20
2023-03-15T20:57:41.230Z,6.20
2023-03-15T21:00:18.078Z,6.20
2023-03-15T21:02:47.635Z,6.20
2023-03-15T21:05:16.294Z,6.20
2023-03-15T21:07:44.866Z,6.20
2023-03-15T21:10:14.708Z,6.20
2023-03-15T21:12:43.937Z,6.20
2023-03-15T21:15:17.857Z,6.20
2023-03-15T21:17:48.752Z,6.20
2023-03-15T21:20:17.054Z,6.20
2023-03-15T21:22:45.437Z,6.20
2023-03-15T21:25:13.527Z,6.20
2023-03-15T21:27:41.643Z,6.20
2023-03-15T21:30:13.800Z,6.20
2023-03-15T21:32:44.691Z,6.20
2023-03-15T21:35:13.276Z,6.20
2023-03-15T21:37:41.413Z,6.20
2023-03-15T21:40:10.825Z,6.20
2023-03-15T21:42:39.426Z,6.20
2023-03-15T21:45:08.916Z,6.20
2023-03-15T21:47:37.013Z,6.10
2023-03-15T21:50:07.537Z,6.20
2023-03-15T21:52:35.601Z,6.20
2023-03-15T21:55:05.082Z,6.10
2023-03-15T21:57:33.794Z,6.10
2023-03-15T22:00:01.984Z,6.10
2023-03-15T22:02:30.044Z,6.10
2023-03-15T22:04:58.242Z,6.00
2023-03-15T22:07:27.732Z,6.00
2023-03-15T22:09:55.788Z,6.00
2023-03-15T22:12:25.262Z,5.90
2023-03-15T22:15:04.813Z,5.90
2023-03-15T22:17:33.640Z,5.90
2023-03-15T22:20:02.052Z,5.90
2023-03-15T22:22:31.537Z,5.90
2023-03-15T22:24:59.611Z,5.80
2023-03-15T22:27:27.657Z,5.80
2023-03-15T22:29:55.738Z,5.80
2023-03-15T22:32:23.824Z,5.80
2023-03-15T22:34:51.881Z,5.80
2023-03-15T22:37:19.988Z,5.70
2023-03-15T22:39:49.381Z,5.70
2023-03-15T22:42:17.781Z,5.70
2023-03-15T22:44:45.804Z,5.70
2023-03-15T22:47:13.875Z,5.70
2023-03-15T22:49:42.067Z,5.70
2023-03-15T22:52:10.294Z,5.70
2023-03-15T22:54:38.229Z,5.60
2023-03-15T22:57:07.782Z,5.60
2023-03-15T22:59:36.061Z,5.60
2023-03-15T23:02:04.710Z,5.60
2023-03-15T23:04:33.954Z,5.60
2023-03-15T23:07:02.145Z,5.60
2023-03-15T23:09:30.373Z,5.60
2023-03-15T23:11:58.499Z,5.60
2023-03-15T23:14:28.025Z,5.60
2023-03-15T23:16:56.067Z,5.60
2023-03-15T23:19:25.236Z,5.60
2023-03-15T23:21:53.374Z,5.60
2023-03-15T23:24:22.722Z,5.60
2023-03-15T23:26:56.468Z,5.60
2023-03-15T23:29:24.559Z,5.70
2023-03-15T23:31:53.922Z,5.70
2023-03-15T23:34:23.555Z,5.70
2023-03-15T23:36:51.796Z,5.70
2023-03-15T23:39:20.234Z,5.60
2023-03-15T23:41:48.798Z,5.70
2023-03-15T23:44:16.939Z,5.70
2023-03-15T23:46:45.160Z,5.60
2023-03-15T23:49:14.578Z,5.60
2023-03-15T23:51:43.993Z,5.60
2023-03-15T23:54:12.363Z,5.60
2023-03-15T23:56:40.403Z,5.60
2023-03-15T23:59:08.521Z,5.60
